createdAt,value
2024-03-12T00:02:08.895Z,2.73
2024-03-12T00:04:44.169Z,2.93
2024-03-12T00:07:13.438Z,2.93
2024-03-12T00:09:42.331Z,2.87
2024-03-12T00:12:13.176Z,3.20
2024-03-12T00:14:42.632Z,3.37
2024-03-12T00:17:12.818Z,3.37
2024-03-12T00:19:43.009Z,3.57
2024-03-12T00:22:12.473Z,3.60
2024-03-12T00:24:42.418Z,3.20
2024-03-12T00:27:13.929Z,2.97
2024-03-12T00:29:42.763Z,3.37
2024-03-12T00:32:11.759Z,3.23
2024-03-12T00:34:41.357Z,3.40
2024-03-12T00:37:11.200Z,3.77
2024-03-12T00:39:41.971Z,4.63
2024-03-12T00:42:10.740Z,4.03
2024-03-12T00:44:40.947Z,3.60
2024-03-12T00:47:10.519Z,3.60
2024-03-12T00:49:39.591Z,3.40
2024-03-12T00:52:08.732Z,3.67
2024-03-12T00:54:38.101Z,4.20
2024-03-12T00:57:07.430Z,3.63
2024-03-12T00:59:36.808Z,3.90
2024-03-12T01:02:14.324Z,4.47
2024-03-12T01:04:43.478Z,4.00
2024-03-12T01:07:13.410Z,3.87
2024-03-12T01:09:42.456Z,3.77
2024-03-12T01:12:11.746Z,4.40
2024-03-12T01:14:39.939Z,4.20
2024-03-12T01:17:10.505Z,4.40
2024-03-12T01:19:42.476Z,4.30
2024-03-12T01:22:11.946Z,4.90
2024-03-12T01:24:46.164Z,4.60
2024-03-12T01:27:15.162Z,4.53
2024-03-12T01:29:46.916Z,4.23
2024-03-12T01:32:17.393Z,4.40
2024-03-12T01:34:48.561Z,4.70
2024-03-12T01:37:25.966Z,4.70
2024-03-12T01:39:57.475Z,4.50
2024-03-12T01:42:27.758Z,5.27
2024-03-12T01:44:56.718Z,4.50
2024-03-12T01:47:30.608Z,5.30
2024-03-12T01:50:03.408Z,5.60
2024-03-12T01:52:35.808Z,5.57
2024-03-12T01:55:04.949Z,6.00
2024-03-12T01:57:34.564Z,6.37
2024-03-12T02:00:06.843Z,6.17
2024-03-12T02:02:36.994Z,6.63
2024-03-12T02:05:06.792Z,6.83
2024-03-12T02:07:36.143Z,7.23
2024-03-12T02:10:08.015Z,7.10
2024-03-12T02:12:37.564Z,7.00
2024-03-12T02:15:07.688Z,6.77
2024-03-12T02:17:37.293Z,6.47
2024-03-12T02:20:10.305Z,6.00
2024-03-12T02:22:40.030Z,5.90
2024-03-12T02:25:11.786Z,6.00
2024-03-12T02:27:42.946Z,6.07
2024-03-12T02:30:12.493Z,6.83
2024-03-12T02:32:41.293Z,6.10
2024-03-12T02:35:12.528Z,6.37
2024-03-12T02:37:42.188Z,5.97
2024-03-12T02:40:15.752Z,6.00
2024-03-12T02:42:48.338Z,6.10
2024-03-12T02:45:19.668Z,6.70
2024-03-12T02:47:51.184Z,6.23
2024-03-12T02:50:20.457Z,5.97
2024-03-12T02:52:51.309Z,6.80
2024-03-12T02:55:21.625Z,6.70
2024-03-12T02:57:49.672Z,6.30
2024-03-12T03:00:18.472Z,6.00
2024-03-12T03:02:46.326Z,6.60
2024-03-12T03:05:15.905Z,6.70
2024-03-12T03:07:47.046Z,5.97
2024-03-12T03:10:18.952Z,7.13
2024-03-12T03:13:05.082Z,6.77
2024-03-12T03:15:45.653Z,5.93
2024-03-12T03:18:20.557Z,6.70
2024-03-12T03:21:00.463Z,6.03
2024-03-12T03:23:31.908Z,6.47
2024-03-12T03:28:59.827Z,6.23
2024-03-12T03:31:34.047Z,6.60
2024-03-12T03:34:05.486Z,6.30
2024-03-12T03:36:37.923Z,6.47
2024-03-12T03:39:10.348Z,6.93
2024-03-12T03:41:42.180Z,6.90
2024-03-12T03:44:21.205Z,5.80
2024-03-12T03:46:54.795Z,6.43
2024-03-12T03:49:28.425Z,6.47
2024-03-12T03:52:02.791Z,6.00
2024-03-12T03:54:37.001Z,6.23
2024-03-12T03:57:14.755Z,6.10
2024-03-12T03:59:57.772Z,6.03
2024-03-12T04:02:29.363Z,6.10
2024-03-12T04:05:09.595Z,6.23
2024-03-12T04:07:43.900Z,6.63
2024-03-12T04:10:16.879Z,6.60
2024-03-12T04:12:57.713Z,6.40
2024-03-12T04:15:31.824Z,6.33
2024-03-12T04:18:03.221Z,6.17
2024-03-12T04:20:34.609Z,5.73
2024-03-12T04:23:05.887Z,6.07
2024-03-12T04:25:39.453Z,5.53
2024-03-12T04:28:15.427Z,5.77
2024-03-12T04:30:48.494Z,5.60
2024-03-12T04:33:22.853Z,5.40
2024-03-12T04:36:01.644Z,5.53
2024-03-12T04:41:23.765Z,5.60
2024-03-12T04:43:57.477Z,5.40
2024-03-12T04:46:32.908Z,5.07
2024-03-12T04:51:50.689Z,5.80
2024-03-12T04:54:22.433Z,6.83
2024-03-12T04:56:56.872Z,6.63
2024-03-12T04:59:28.440Z,6.13
2024-03-12T05:02:13.227Z,5.90
2024-03-12T05:07:32.261Z,5.70
2024-03-12T05:10:06.633Z,6.07
2024-03-12T05:12:40.680Z,5.57
2024-03-12T05:15:13.029Z,6.27
2024-03-12T05:17:58.822Z,6.33
2024-03-12T05:20:33.680Z,5.73
2024-03-12T05:23:07.661Z,5.87
2024-03-12T05:25:48.176Z,6.37
2024-03-12T05:28:21.474Z,5.90
2024-03-12T05:30:57.769Z,6.17
2024-03-12T05:33:44.930Z,5.67
2024-03-12T05:36:16.250Z,6.13
2024-03-12T05:38:57.200Z,5.63
2024-03-12T05:41:42.200Z,6.17
2024-03-12T05:44:29.248Z,7.30
2024-03-12T05:47:18.389Z,6.63
2024-03-12T05:50:03.213Z,6.70
2024-03-12T05:52:34.785Z,6.20
2024-03-12T05:55:08.550Z,6.20
2024-03-12T05:57:40.019Z,6.47
2024-03-12T06:00:20.930Z,7.20
2024-03-12T06:02:54.680Z,7.47
2024-03-12T06:05:44.797Z,8.40
2024-03-12T06:08:17.310Z,7.77
2024-03-12T06:10:48.236Z,8.70
2024-03-12T06:13:18.551Z,7.03
2024-03-12T06:15:52.919Z,8.70
2024-03-12T06:18:24.398Z,8.73
2024-03-12T06:21:00.482Z,8.40
2024-03-12T06:23:33.154Z,8.57
2024-03-12T06:26:17.999Z,8.53
2024-03-12T06:28:53.087Z,9.03
2024-03-12T06:31:27.357Z,9.20
2024-03-12T06:34:03.624Z,9.20
2024-03-12T06:36:35.374Z,9.33
2024-03-12T06:39:08.997Z,10.10
2024-03-12T06:41:42.890Z,10.13
2024-03-12T06:44:20.239Z,8.30
2024-03-12T06:46:52.672Z,9.33
2024-03-12T06:49:31.840Z,9.77
2024-03-12T06:52:18.148Z,10.33
2024-03-12T06:54:52.236Z,10.33
2024-03-12T06:57:24.118Z,11.17
2024-03-12T07:00:00.178Z,11.03
2024-03-12T07:02:42.544Z,11.20
2024-03-12T07:05:20.089Z,11.73
2024-03-12T07:08:05.195Z,12.20
2024-03-12T07:10:37.983Z,11.50
2024-03-12T07:13:11.352Z,11.80
2024-03-12T07:15:53.667Z,11.70
2024-03-12T07:18:34.041Z,10.73
2024-03-12T07:21:10.443Z,10.43
2024-03-12T07:23:57.732Z,11.10
2024-03-12T07:26:31.910Z,10.20
2024-03-12T07:29:03.430Z,10.90
2024-03-12T07:31:39.161Z,10.07
2024-03-12T07:34:11.169Z,10.77
2024-03-12T07:36:43.916Z,10.50
2024-03-12T07:39:29.173Z,11.20
2024-03-12T07:42:15.421Z,11.00
2024-03-12T07:44:50.192Z,11.50
2024-03-12T07:47:24.192Z,11.67
2024-03-12T07:49:56.676Z,11.70
2024-03-12T07:52:28.457Z,11.10
2024-03-12T07:55:00.269Z,12.53
2024-03-12T07:57:36.031Z,11.67
2024-03-12T08:00:18.099Z,10.73
2024-03-12T08:02:52.567Z,12.80
2024-03-12T08:05:21.823Z,12.30
2024-03-12T08:07:55.827Z,11.80
2024-03-12T08:10:41.722Z,12.67
2024-03-12T08:13:12.383Z,12.83
2024-03-12T08:15:44.468Z,11.97
2024-03-12T08:18:20.544Z,11.77
2024-03-12T08:20:55.151Z,11.23
2024-03-12T08:23:38.708Z,12.17
2024-03-12T08:26:14.195Z,12.97
2024-03-12T08:28:47.822Z,12.00
2024-03-12T08:31:30.925Z,11.80
2024-03-12T08:34:07.252Z,10.67
2024-03-12T08:36:35.916Z,11.93
2024-03-12T08:39:08.609Z,11.77
2024-03-12T08:41:40.266Z,10.43
2024-03-12T08:44:08.427Z,10.40
2024-03-12T08:46:41.197Z,10.77
2024-03-12T08:49:12.893Z,9.27
2024-03-12T08:51:43.269Z,8.93
2024-03-12T08:54:15.366Z,9.03
2024-03-12T08:57:03.057Z,9.27
2024-03-12T08:59:41.247Z,9.53
2024-03-12T09:02:22.129Z,9.00
2024-03-12T09:04:55.753Z,8.03
2024-03-12T09:07:26.979Z,8.20
2024-03-12T09:10:00.942Z,8.73
2024-03-12T09:12:48.596Z,8.97
2024-03-12T09:15:24.333Z,8.33
2024-03-12T09:17:56.530Z,8.47
2024-03-12T09:20:28.101Z,8.50
2024-03-12T09:23:09.187Z,8.80
2024-03-12T09:25:42.963Z,8.23
2024-03-12T09:28:20.339Z,7.67
2024-03-12T09:30:53.140Z,7.43
2024-03-12T09:33:26.946Z,6.97
2024-03-12T09:36:01.195Z,7.97
2024-03-12T09:38:43.536Z,7.17
2024-03-12T09:41:26.221Z,7.23
2024-03-12T09:43:57.369Z,7.30
2024-03-12T09:46:40.766Z,7.03
2024-03-12T09:49:15.237Z,6.57
2024-03-12T09:51:55.181Z,6.53
2024-03-12T09:54:29.691Z,7.53
2024-03-12T09:57:05.209Z,6.90
2024-03-12T09:59:48.554Z,7.00
2024-03-12T10:02:25.542Z,7.77
2024-03-12T10:04:54.857Z,6.80
2024-03-12T10:10:10.456Z,7.67
2024-03-12T10:12:48.588Z,7.53
2024-03-12T10:15:35.834Z,9.17
2024-03-12T10:18:14.097Z,8.80
2024-03-12T10:20:58.025Z,8.97
2024-03-12T10:23:38.404Z,9.30
2024-03-12T10:26:11.747Z,8.60
2024-03-12T10:28:46.317Z,8.50
2024-03-12T10:31:27.503Z,8.77
2024-03-12T10:33:59.038Z,8.13
2024-03-12T10:36:37.562Z,7.83
2024-03-12T10:39:13.723Z,8.60
2024-03-12T10:41:51.118Z,7.87
2024-03-12T10:44:22.530Z,7.47
2024-03-12T10:47:08.806Z,7.00
2024-03-12T10:49:42.818Z,6.90
2024-03-12T10:52:13.726Z,6.93
2024-03-12T10:54:51.294Z,7.07
2024-03-12T10:57:30.816Z,6.63
2024-03-12T11:00:12.407Z,6.87
2024-03-12T11:02:56.332Z,6.80
2024-03-12T11:05:29.679Z,6.50
2024-03-12T11:08:05.584Z,6.73
2024-03-12T11:10:52.114Z,7.23
2024-03-12T11:13:32.172Z,7.40
2024-03-12T11:16:15.109Z,7.53
2024-03-12T11:18:49.383Z,7.40
2024-03-12T11:21:41.111Z,8.33
2024-03-12T11:24:13.442Z,8.10
2024-03-12T11:26:53.879Z,7.57
2024-03-12T11:29:57.201Z,7.83
2024-03-12T11:32:46.663Z,7.30
2024-03-12T11:35:48.067Z,8.30
2024-03-12T11:38:28.219Z,8.70
2024-03-12T11:41:06.799Z,7.80
2024-03-12T11:43:41.700Z,9.30
2024-03-12T11:46:14.100Z,8.83
2024-03-12T11:48:53.452Z,9.37
2024-03-12T11:52:00.338Z,9.37
2024-03-12T11:54:52.291Z,9.90
2024-03-12T12:01:02.514Z,9.40
2024-03-12T12:03:54.920Z,9.23
2024-03-12T12:06:41.605Z,10.37
2024-03-12T12:09:21.045Z,10.00
2024-03-12T12:11:50.072Z,10.63
2024-03-12T12:14:29.482Z,10.10
2024-03-12T12:17:01.260Z,9.70
2024-03-12T12:19:38.639Z,10.90
2024-03-12T12:22:26.305Z,10.33
2024-03-12T12:25:00.786Z,11.00
2024-03-12T12:27:42.627Z,11.27
2024-03-12T12:30:21.574Z,11.27
2024-03-12T12:32:53.288Z,10.87
2024-03-12T12:35:33.204Z,10.37
2024-03-12T12:38:23.526Z,11.13
2024-03-12T12:40:59.912Z,11.10
2024-03-12T12:43:34.165Z,11.40
2024-03-12T12:46:09.291Z,11.03
2024-03-12T12:48:54.513Z,11.30
2024-03-12T12:51:24.866Z,10.47
2024-03-12T12:54:03.015Z,11.13
2024-03-12T12:56:34.855Z,11.67
2024-03-12T12:59:11.101Z,12.10
2024-03-12T13:01:43.889Z,12.63
2024-03-12T13:04:27.068Z,11.97
2024-03-12T13:06:58.112Z,12.83
2024-03-12T13:09:42.964Z,12.00
2024-03-12T13:12:14.508Z,11.17
2024-03-12T13:14:51.284Z,12.60
2024-03-12T13:17:21.638Z,12.10
2024-03-12T13:19:50.549Z,11.67
2024-03-12T13:25:11.134Z,12.90
2024-03-12T13:27:45.864Z,12.13
2024-03-12T13:30:16.373Z,12.97
2024-03-12T13:32:55.243Z,12.37
2024-03-12T13:35:28.175Z,12.27
2024-03-12T13:38:02.495Z,13.30
2024-03-12T13:40:47.391Z,13.60
2024-03-12T13:43:19.269Z,12.87
2024-03-12T13:45:50.242Z,13.53
2024-03-12T13:48:33.974Z,12.33
2024-03-12T13:51:16.743Z,13.03
2024-03-12T13:53:52.347Z,13.37
2024-03-12T13:56:36.958Z,13.00
2024-03-12T13:59:06.754Z,12.53
2024-03-12T14:01:40.674Z,13.40
2024-03-12T14:04:21.273Z,13.80
2024-03-12T14:06:51.178Z,13.50
2024-03-12T14:09:25.226Z,12.67
2024-03-12T14:12:11.965Z,13.13
2024-03-12T14:14:44.624Z,12.13
2024-03-12T14:17:18.652Z,12.87
2024-03-12T14:19:52.289Z,12.50
2024-03-12T14:22:26.511Z,12.77
2024-03-12T14:24:58.003Z,12.87
2024-03-12T14:27:46.226Z,13.47
2024-03-12T14:30:21.484Z,14.50
2024-03-12T14:32:52.388Z,13.37
2024-03-12T14:35:26.682Z,13.30
2024-03-12T14:37:58.804Z,13.93
2024-03-12T14:40:28.269Z,13.47
2024-03-12T14:43:15.303Z,13.20
2024-03-12T14:45:48.201Z,13.87
2024-03-12T14:48:19.646Z,13.83
2024-03-12T14:53:43.438Z,11.83
2024-03-12T14:56:22.299Z,12.50
2024-03-12T14:59:07.577Z,12.80
2024-03-12T15:01:43.761Z,13.87
2024-03-12T15:04:17.361Z,13.80
2024-03-12T15:06:51.029Z,13.60
2024-03-12T15:09:25.211Z,13.50
2024-03-12T15:12:01.146Z,13.50
2024-03-12T15:14:46.701Z,14.57
2024-03-12T15:20:04.243Z,14.67
2024-03-12T15:22:43.353Z,14.33
2024-03-12T15:25:20.082Z,14.73
2024-03-12T15:28:04.964Z,14.07
2024-03-12T15:30:49.282Z,14.43
2024-03-12T15:33:26.507Z,13.60
2024-03-12T15:35:59.849Z,13.80
2024-03-12T15:38:29.754Z,14.77
2024-03-12T15:41:07.356Z,15.43
2024-03-12T15:43:38.992Z,15.50
2024-03-12T15:46:20.409Z,14.60
2024-03-12T15:48:50.278Z,14.67
2024-03-12T15:51:21.888Z,13.43
2024-03-12T15:53:55.243Z,14.30
2024-03-12T15:56:27.004Z,13.20
2024-03-12T15:59:04.673Z,14.70
2024-03-12T16:01:46.569Z,14.60
2024-03-12T16:04:28.423Z,15.17
2024-03-12T16:07:02.557Z,14.53
2024-03-12T16:09:37.319Z,16.13
2024-03-12T16:12:07.585Z,15.67
2024-03-12T16:14:39.247Z,15.43
2024-03-12T16:17:13.751Z,15.90
2024-03-12T16:19:44.493Z,13.43
2024-03-12T16:22:23.217Z,13.97
2024-03-12T16:24:54.765Z,14.33
2024-03-12T16:27:41.403Z,14.00
2024-03-12T16:30:15.918Z,15.03
2024-03-12T16:32:57.284Z,14.77
2024-03-12T16:35:29.084Z,14.87
2024-03-12T16:38:01.509Z,13.93
2024-03-12T16:40:43.841Z,15.20
2024-03-12T16:43:15.665Z,15.30
2024-03-12T16:45:49.092Z,15.80
2024-03-12T16:48:33.544Z,17.17
2024-03-12T16:51:10.185Z,18.00
2024-03-12T16:53:41.940Z,18.00
2024-03-12T16:56:24.913Z,18.43
2024-03-12T16:58:54.545Z,19.47
2024-03-12T17:01:25.363Z,19.47
2024-03-12T17:04:15.890Z,18.80
2024-03-12T17:06:54.079Z,20.10
2024-03-12T17:09:25.792Z,19.23
2024-03-12T17:11:56.980Z,20.03
2024-03-12T17:14:34.180Z,18.77
2024-03-12T17:17:15.721Z,20.23
2024-03-12T17:19:52.865Z,20.07
2024-03-12T17:22:26.706Z,21.03
2024-03-12T17:24:57.031Z,20.20
2024-03-12T17:27:30.908Z,20.47
2024-03-12T17:30:00.396Z,19.17
2024-03-12T17:32:34.188Z,18.97
2024-03-12T17:35:15.131Z,20.20
2024-03-12T17:37:45.939Z,21.30
2024-03-12T17:40:21.219Z,23.23
2024-03-12T17:42:51.222Z,22.00
2024-03-12T17:45:30.127Z,22.63
2024-03-12T17:48:01.969Z,22.80
2024-03-12T17:50:31.992Z,24.00
2024-03-12T17:53:09.506Z,24.33
2024-03-12T17:55:51.444Z,24.37
2024-03-12T17:58:23.323Z,23.10
2024-03-12T18:00:57.498Z,23.97
2024-03-12T18:03:30.560Z,23.17
2024-03-12T18:06:06.706Z,24.67
2024-03-12T18:08:40.293Z,23.77
2024-03-12T18:11:14.892Z,24.97
2024-03-12T18:13:45.256Z,25.33
2024-03-12T18:16:14.972Z,24.50
2024-03-12T18:18:44.897Z,24.80
2024-03-12T18:21:31.284Z,24.03
2024-03-12T18:26:47.701Z,24.53
2024-03-12T18:29:16.693Z,25.40
2024-03-12T18:31:53.114Z,25.30
2024-03-12T18:34:36.186Z,24.57
2024-03-12T18:37:22.999Z,25.43
2024-03-12T18:39:56.999Z,23.03
2024-03-12T18:42:27.833Z,23.00
2024-03-12T18:45:02.082Z,20.60
2024-03-12T18:47:40.863Z,20.77
2024-03-12T18:50:27.497Z,21.20
2024-03-12T18:53:10.872Z,21.50
2024-03-12T18:55:39.626Z,21.17
2024-03-12T18:58:11.057Z,21.93
2024-03-12T19:00:50.132Z,20.97
2024-03-12T19:03:27.117Z,17.13
2024-03-12T19:05:58.511Z,19.27
2024-03-12T19:08:42.375Z,20.57
2024-03-12T19:11:24.401Z,20.33
2024-03-12T19:13:55.927Z,19.37
2024-03-12T19:16:34.496Z,20.40
2024-03-12T19:19:15.389Z,19.77
2024-03-12T19:21:49.867Z,20.23
2024-03-12T19:24:30.732Z,18.83
2024-03-12T19:27:01.698Z,18.67
2024-03-12T19:29:35.956Z,19.33
2024-03-12T19:32:11.948Z,20.70
2024-03-12T19:34:47.669Z,20.97
2024-03-12T19:37:18.240Z,21.40
2024-03-12T19:39:59.552Z,20.13
2024-03-12T19:42:31.205Z,20.70
2024-03-12T19:45:06.272Z,20.33
2024-03-12T19:47:41.273Z,20.23
2024-03-12T19:50:13.138Z,18.60
2024-03-12T19:52:50.079Z,18.60
2024-03-12T19:55:31.020Z,19.53
2024-03-12T19:58:13.803Z,18.07
2024-03-12T20:00:51.489Z,18.83
2024-03-12T20:03:28.839Z,18.37
2024-03-12T20:05:58.463Z,19.50
2024-03-12T20:08:31.722Z,17.87
2024-03-12T20:11:03.274Z,18.73
2024-03-12T20:13:39.371Z,17.83
2024-03-12T20:16:13.531Z,20.23
2024-03-12T20:18:48.632Z,22.17
2024-03-12T20:21:21.969Z,21.27
2024-03-12T20:23:52.483Z,22.00
2024-03-12T20:26:37.638Z,21.57
2024-03-12T20:29:09.226Z,19.47
2024-03-12T20:31:41.520Z,19.13
2024-03-12T20:34:13.542Z,18.90
2024-03-12T20:36:47.743Z,18.43
2024-03-12T20:39:31.955Z,15.80
2024-03-12T20:42:14.668Z,15.30
2024-03-12T20:44:46.414Z,14.83
2024-03-12T20:47:21.508Z,14.43
2024-03-12T20:49:50.487Z,13.60
2024-03-12T20:52:22.327Z,12.40
2024-03-12T20:54:58.686Z,10.93
2024-03-12T20:57:28.977Z,10.67
2024-03-12T21:00:04.639Z,10.67
2024-03-12T21:02:36.130Z,11.03
2024-03-12T21:05:11.430Z,10.30
2024-03-12T21:07:40.485Z,9.30
2024-03-12T21:10:20.371Z,9.53
2024-03-12T21:13:03.128Z,9.57
2024-03-12T21:15:38.904Z,8.97
2024-03-12T21:18:10.791Z,8.47
2024-03-12T21:20:44.597Z,9.10
2024-03-12T21:23:19.963Z,9.23
2024-03-12T21:25:51.298Z,9.07
2024-03-12T21:28:35.460Z,8.53
2024-03-12T21:31:05.022Z,8.10
2024-03-12T21:33:34.964Z,7.63
2024-03-12T21:36:02.877Z,8.17
2024-03-12T21:38:38.248Z,7.87
2024-03-12T21:41:12.732Z,8.60
2024-03-12T21:43:45.775Z,8.57
2024-03-12T21:46:20.715Z,9.03
2024-03-12T21:48:57.091Z,9.37
2024-03-12T21:51:36.550Z,8.47
2024-03-12T21:56:53.551Z,8.10
2024-03-12T21:59:38.655Z,7.87
2024-03-12T22:02:11.134Z,7.43
2024-03-12T22:04:44.789Z,8.13
2024-03-12T22:07:16.119Z,7.10
2024-03-12T22:09:46.048Z,7.97
2024-03-12T22:12:19.957Z,7.87
2024-03-12T22:14:56.152Z,7.17
2024-03-12T22:17:27.448Z,6.57
2024-03-12T22:20:00.154Z,6.27
2024-03-12T22:22:34.103Z,6.57
2024-03-12T22:25:06.014Z,6.83
2024-03-12T22:27:39.825Z,6.27
2024-03-12T22:30:19.803Z,5.60
2024-03-12T22:32:53.760Z,6.70
2024-03-12T22:35:26.563Z,7.07
2024-03-12T22:38:09.327Z,6.70
2024-03-12T22:40:39.208Z,6.40
2024-03-12T22:43:10.195Z,5.70
2024-03-12T22:45:57.942Z,6.73
2024-03-12T22:48:31.859Z,5.93
2024-03-12T22:51:02.657Z,6.20
2024-03-12T22:53:41.036Z,6.50
2024-03-12T22:56:21.240Z,6.97
2024-03-12T22:58:53.942Z,6.77
2024-03-12T23:01:44.046Z,6.50
2024-03-12T23:04:29.292Z,7.40
2024-03-12T23:07:02.992Z,7.20
2024-03-12T23:09:37.292Z,7.73
2024-03-12T23:12:05.423Z,8.00
2024-03-12T23:14:36.719Z,7.90
2024-03-12T23:17:16.063Z,8.07
2024-03-12T23:19:53.009Z,7.63
2024-03-12T23:22:24.494Z,7.57
2024-03-12T23:24:55.385Z,8.03
2024-03-12T23:27:36.213Z,7.40
2024-03-12T23:30:11.062Z,6.67
2024-03-12T23:32:50.153Z,6.97
2024-03-12T23:35:19.275Z,6.80
2024-03-12T23:37:57.193Z,6.77
2024-03-12T23:40:29.962Z,6.30
2024-03-12T23:43:03.253Z,5.97
2024-03-12T23:45:37.795Z,5.63
2024-03-12T23:48:13.008Z,6.13
2024-03-12T23:50:45.938Z,6.37
2024-03-12T23:53:17.448Z,6.17
2024-03-12T23:55:53.704Z,6.30
2024-03-12T23:58:28.307Z,6.30
